Portada
METAR-TAF:

METAR-TAF

Aeroports :

Meiringen, Suïssa

latitud: 46-44-25N, longitud: 8-06-36E, altitud: 577 m

Observació

L'informe es va fer fa 16 minuts, a les 13:50 UTC
Vent 11 kt del Oest/Nord-Oest, variant entre Oest i Nord-Oest
Temperatura 0°C
Humitat 93%
Pressió 1006 hPa
Visibilitat: 0500 m
xàfecs de neu, pluja

METAR: LSMM 261350Z 29011KT 260V320 0500 R10/0800V1300U R28/0600V0800D SHSNRA VV003 M00/M01 Q1006 RMK RED

Hora: 15:06 (14:06 UTC)


TAF: manca

Observacions i pronòstics meteorològics de més de 4000 aeroports (METAR i TAF).

Les estacions disponibles són els punts grocs i vermells al mapa.

Posi el ratolí al punt desitjat per veure el nom de l'estació.

Feu clic per veure les observacions i els pronòstics meteorològics.

Per canviar el mapa: feu clic els botons verds amb una creu de color negre per apropar; al botó verd amb un guió per allunyar la imatge; o en les fletxes verdes per a mapes adjacents.


METAR-TAF: